Time;durP1;ratioP1;P1;durP2;ratioP2;P2;SDS_P1;SDS_P2;PMS_P1;PMS_P2;Temp;Humidity;BMP_temperature;BMP_pressure;BME280_temperature;BME280_humidity;BME280_pressure;Samples;Min_cycle;Max_cycle;Signal;HPM_P1;HPM_P2
2022/07/11 00:01:37;;;;;;;2.08;1.33;;;13.10;99.90;;;;;;5048672;28;20056;-49
2022/07/11 00:04:02;;;;;;;4.93;1.70;;;13.10;99.90;;;;;;5047988;28;20035;-50
2022/07/11 00:06:28;;;;;;;3.97;1.20;;;13.10;99.90;;;;;;5048523;28;20029;-46
2022/07/11 00:08:53;;;;;;;2.58;1.27;;;13.20;99.90;;;;;;5047182;28;20111;-49
2022/07/11 00:11:19;;;;;;;8.52;1.48;;;13.20;99.90;;;;;;5048423;28;20021;-46
2022/07/11 00:13:45;;;;;;;4.25;1.52;;;13.20;99.90;;;;;;5048373;28;20040;-49
2022/07/11 00:16:11;;;;;;;5.28;1.80;;;13.20;99.90;;;;;;5048278;28;20074;-45
2022/07/11 00:18:36;;;;;;;4.75;1.23;;;13.30;99.90;;;;;;5046701;28;20045;-48
2022/07/11 00:21:02;;;;;;;2.97;1.30;;;13.30;99.90;;;;;;5039953;28;20025;-47
2022/07/11 00:23:27;;;;;;;4.32;1.30;;;13.40;99.90;;;;;;5048351;28;20025;-49
2022/07/11 00:25:53;;;;;;;3.50;1.30;;;13.40;99.90;;;;;;5047845;28;20056;-46
2022/07/11 00:28:18;;;;;;;3.28;1.83;;;13.40;99.90;;;;;;5048361;28;20025;-46
2022/07/11 00:30:45;;;;;;;8.60;1.38;;;13.30;99.90;;;;;;5048575;28;20108;-47
2022/07/11 00:33:10;;;;;;;3.55;1.80;;;13.30;99.90;;;;;;5048667;28;20112;-46
2022/07/11 00:35:36;;;;;;;4.18;1.88;;;13.30;99.90;;;;;;5047553;28;20132;-46
2022/07/11 00:38:01;;;;;;;1.48;1.20;;;13.30;99.90;;;;;;5049665;28;20044;-47
2022/07/11 00:40:27;;;;;;;5.63;1.58;;;13.30;99.90;;;;;;5052140;28;20032;-47
2022/07/11 00:42:52;;;;;;;2.33;1.42;;;13.30;99.90;;;;;;5052185;28;20076;-46
2022/07/11 00:45:18;;;;;;;5.47;1.70;;;13.30;99.90;;;;;;5051886;28;20021;-45
2022/07/11 00:47:43;;;;;;;3.15;1.67;;;13.30;99.90;;;;;;5052156;28;20104;-45
2022/07/11 00:50:09;;;;;;;2.47;1.45;;;13.30;99.90;;;;;;5044291;28;20255;-46
2022/07/11 00:52:36;;;;;;;3.88;1.75;;;13.30;99.90;;;;;;5048311;28;20036;-48
2022/07/11 00:55:04;;;;;;;6.80;2.15;;;13.30;99.90;;;;;;5051446;28;20029;-46
2022/07/11 00:57:31;;;;;;;4.75;1.95;;;13.30;99.90;;;;;;5051998;28;20025;-49
2022/07/11 00:59:56;;;;;;;4.07;1.45;;;13.30;99.90;;;;;;5051999;28;20021;-48
2022/07/11 01:02:22;;;;;;;3.22;1.73;;;13.30;99.90;;;;;;5046494;28;20033;-46
2022/07/11 01:04:47;;;;;;;5.47;1.85;;;13.30;99.90;;;;;;5014903;28;20100;-49
2022/07/11 01:07:13;;;;;;;1.98;1.50;;;13.40;99.90;;;;;;5027988;28;20053;-47
2022/07/11 01:09:39;;;;;;;9.00;1.55;;;13.40;99.90;;;;;;5032100;28;20101;-48
2022/07/11 01:12:05;;;;;;;4.68;1.38;;;13.40;99.90;;;;;;5031715;28;20124;-46
2022/07/11 01:14:31;;;;;;;2.50;1.65;;;13.50;99.90;;;;;;5038439;28;20111;-47
2022/07/11 01:16:57;;;;;;;2.40;1.77;;;13.50;99.90;;;;;;5043875;28;20078;-47
2022/07/11 01:19:23;;;;;;;7.35;1.73;;;13.50;99.90;;;;;;5051788;28;20033;-46
2022/07/11 01:21:51;;;;;;;3.42;1.48;;;13.50;99.90;;;;;;5051382;28;20107;-47
2022/07/11 01:24:16;;;;;;;5.25;1.58;;;13.50;99.90;;;;;;5050712;28;20029;-47
2022/07/11 01:26:43;;;;;;;5.05;2.10;;;13.50;99.90;;;;;;5051408;28;20398;-49
2022/07/11 01:29:10;;;;;;;3.00;1.92;;;13.50;99.90;;;;;;5049988;28;20025;-47
2022/07/11 01:31:45;;;;;;;7.20;2.30;;;13.50;99.90;;;;;;5051177;28;20055;-47
2022/07/11 01:34:11;;;;;;;2.38;1.73;;;13.50;99.90;;;;;;5050743;28;20028;-48
2022/07/11 01:36:37;;;;;;;5.38;2.20;;;13.50;99.90;;;;;;5049884;28;20559;-47
2022/07/11 01:39:03;;;;;;;6.30;1.70;;;13.50;99.90;;;;;;5051237;28;20092;-47
2022/07/11 01:41:29;;;;;;;10.07;2.35;;;13.60;99.90;;;;;;5051150;28;20025;-46
2022/07/11 01:43:54;;;;;;;5.15;2.20;;;13.50;99.90;;;;;;5046827;28;20021;-47
2022/07/11 01:46:21;;;;;;;2.13;1.55;;;13.50;99.90;;;;;;5042451;28;20027;-46
2022/07/11 01:48:47;;;;;;;6.18;2.30;;;13.60;99.90;;;;;;5049055;28;20383;-50
2022/07/11 01:51:13;;;;;;;5.20;1.90;;;13.50;99.90;;;;;;5050838;28;20037;-46
2022/07/11 01:53:38;;;;;;;4.35;2.13;;;13.50;99.90;;;;;;5050863;28;20028;-47
2022/07/11 01:56:04;;;;;;;5.13;2.30;;;13.40;99.90;;;;;;5050457;28;20139;-46
2022/07/11 01:58:30;;;;;;;5.63;2.10;;;13.40;99.90;;;;;;5050786;28;20024;-47
2022/07/11 02:00:57;;;;;;;4.28;2.38;;;13.40;99.90;;;;;;5050882;28;20379;-47
2022/07/11 02:03:22;;;;;;;4.07;2.20;;;13.40;99.90;;;;;;5050712;28;20033;-47
2022/07/11 02:05:48;;;;;;;8.05;2.53;;;13.40;99.90;;;;;;5048743;28;20429;-47
2022/07/11 02:08:13;;;;;;;2.47;1.88;;;13.40;99.90;;;;;;5050677;28;20486;-47
2022/07/11 02:10:43;;;;;;;5.75;2.30;;;13.40;99.90;;;;;;5050550;28;20017;-47
2022/07/11 02:13:09;;;;;;;3.95;2.45;;;13.40;99.90;;;;;;5050487;28;20083;-47
2022/07/11 02:15:35;;;;;;;4.25;2.75;;;13.50;99.90;;;;;;5039164;28;20025;-46
2022/07/11 02:18:01;;;;;;;5.00;2.40;;;13.50;99.90;;;;;;5050569;28;20035;-47
2022/07/11 02:20:27;;;;;;;6.53;2.90;;;13.40;99.90;;;;;;5050285;28;20029;-47
2022/07/11 02:22:53;;;;;;;4.32;2.78;;;13.50;99.90;;;;;;5050160;28;20090;-46
2022/07/11 02:25:19;;;;;;;11.20;3.20;;;13.40;99.90;;;;;;5050026;28;20021;-47
2022/07/11 02:27:44;;;;;;;4.00;2.35;;;13.40;99.90;;;;;;5050540;28;20070;-47
2022/07/11 02:30:11;;;;;;;3.58;2.63;;;13.40;99.90;;;;;;5050091;28;20479;-47
2022/07/11 02:32:37;;;;;;;6.43;2.88;;;13.40;99.90;;;;;;5050610;28;20025;-47
2022/07/11 02:35:03;;;;;;;6.63;3.38;;;13.30;99.90;;;;;;5049491;28;20025;-47
2022/07/11 02:37:28;;;;;;;4.03;2.33;;;13.40;99.90;;;;;;5050176;28;20391;-49
2022/07/11 02:39:54;;;;;;;4.32;2.72;;;13.40;99.90;;;;;;5050462;28;20036;-47
2022/07/11 02:42:19;;;;;;;4.97;2.80;;;13.40;99.90;;;;;;5050085;28;20043;-46
2022/07/11 02:44:45;;;;;;;4.75;2.60;;;13.30;99.90;;;;;;5044481;28;20430;-46
2022/07/11 02:47:11;;;;;;;4.10;2.30;;;13.20;99.90;;;;;;5044082;28;20601;-46
2022/07/11 02:49:37;;;;;;;4.70;2.85;;;13.30;99.90;;;;;;5049715;28;20020;-47
2022/07/11 02:52:03;;;;;;;5.10;2.67;;;13.20;99.90;;;;;;5050078;28;20094;-46
2022/07/11 02:54:29;;;;;;;4.55;2.40;;;13.20;99.90;;;;;;5049118;28;20021;-46
2022/07/11 02:56:55;;;;;;;4.40;2.30;;;13.10;99.90;;;;;;5049994;28;20029;-46
2022/07/11 02:59:21;;;;;;;5.97;3.28;;;13.10;99.90;;;;;;5049464;28;20033;-51
2022/07/11 03:01:47;;;;;;;4.82;2.70;;;13.10;99.90;;;;;;5048622;28;20018;-47
2022/07/11 03:04:12;;;;;;;5.03;3.00;;;13.00;99.90;;;;;;5048917;28;20021;-46
2022/07/11 03:06:38;;;;;;;5.13;3.00;;;13.00;99.90;;;;;;5048235;28;20021;-47
2022/07/11 03:09:05;;;;;;;8.45;3.45;;;13.00;99.90;;;;;;5049586;28;20032;-46
2022/07/11 03:11:31;;;;;;;6.47;3.30;;;13.00;99.90;;;;;;5044620;28;20040;-46
2022/07/11 03:13:57;;;;;;;6.95;3.30;;;12.90;99.90;;;;;;5032712;28;20048;-46
2022/07/11 03:16:22;;;;;;;5.57;3.40;;;13.00;99.90;;;;;;5039430;28;20059;-49
2022/07/11 03:18:48;;;;;;;4.85;2.67;;;13.10;99.90;;;;;;5049464;28;20021;-46
2022/07/11 03:21:13;;;;;;;6.47;3.08;;;13.10;99.90;;;;;;5049599;28;20446;-46
2022/07/11 03:23:39;;;;;;;4.25;3.10;;;13.10;99.90;;;;;;5049522;28;20055;-47
2022/07/11 03:26:04;;;;;;;10.57;3.63;;;13.10;99.90;;;;;;5047299;28;20379;-47
2022/07/11 03:28:30;;;;;;;5.72;4.15;;;13.20;99.90;;;;;;5049160;28;20111;-46
2022/07/11 03:30:55;;;;;;;13.63;5.68;;;13.20;99.90;;;;;;5048903;28;20025;-50
2022/07/11 03:33:21;;;;;;;8.38;5.97;;;13.20;99.90;;;;;;5049115;28;20624;-47
2022/07/11 03:35:47;;;;;;;10.68;5.78;;;13.20;99.90;;;;;;5048808;28;20037;-47
2022/07/11 03:38:17;;;;;;;11.77;6.63;;;13.30;99.90;;;;;;5048968;28;20025;-47
2022/07/11 03:40:43;;;;;;;13.60;6.65;;;13.30;99.90;;;;;;5047669;28;20082;-48
2022/07/11 03:43:09;;;;;;;8.52;5.75;;;13.40;99.90;;;;;;5048881;28;20350;-47
2022/07/11 03:45:34;;;;;;;7.10;4.80;;;13.40;99.90;;;;;;5037423;28;20017;-47
2022/07/11 03:48:00;;;;;;;10.52;5.72;;;13.40;99.90;;;;;;5048710;28;20025;-46
2022/07/11 03:50:25;;;;;;;9.05;5.63;;;13.50;99.90;;;;;;5048825;28;20256;-47
2022/07/11 03:52:52;;;;;;;10.40;5.40;;;13.60;99.90;;;;;;5048813;28;20486;-47
2022/07/11 03:55:18;;;;;;;7.43;4.88;;;13.60;99.90;;;;;;5048108;28;20106;-46
2022/07/11 03:57:43;;;;;;;8.88;4.47;;;13.60;99.90;;;;;;5048769;28;20494;-48
2022/07/11 04:00:10;;;;;;;10.55;5.35;;;13.60;99.90;;;;;;5048515;28;20033;-47
2022/07/11 04:02:36;;;;;;;10.75;4.82;;;13.60;99.90;;;;;;5048715;28;20474;-48
2022/07/11 04:05:02;;;;;;;9.70;5.85;;;13.60;99.90;;;;;;5048121;28;20445;-46
2022/07/11 04:07:28;;;;;;;11.60;5.68;;;13.70;99.90;;;;;;5048492;28;20024;-46
2022/07/11 04:09:54;;;;;;;7.85;5.15;;;13.70;99.90;;;;;;5048624;28;20502;-46
2022/07/11 04:12:20;;;;;;;9.45;6.30;;;13.70;99.90;;;;;;5048319;28;20047;-46
2022/07/11 04:14:45;;;;;;;13.90;6.00;;;13.70;99.90;;;;;;5042561;28;20032;-46
2022/07/11 04:17:11;;;;;;;15.52;7.55;;;13.70;99.90;;;;;;5042639;28;20131;-45
2022/07/11 04:19:38;;;;;;;13.88;7.22;;;13.70;99.90;;;;;;5048429;28;20067;-45
2022/07/11 04:22:04;;;;;;;14.27;7.10;;;13.60;99.90;;;;;;5048379;28;20451;-45
2022/07/11 04:24:29;;;;;;;8.15;5.55;;;13.60;99.90;;;;;;5047783;28;20332;-45
2022/07/11 04:26:55;;;;;;;15.52;6.15;;;13.60;99.90;;;;;;5048500;28;20021;-46
2022/07/11 04:29:20;;;;;;;11.63;6.00;;;13.60;99.90;;;;;;5048168;28;20032;-46
2022/07/11 04:31:46;;;;;;;13.23;6.63;;;13.70;99.90;;;;;;5048494;28;20037;-48
2022/07/11 04:34:11;;;;;;;11.55;6.40;;;13.70;99.90;;;;;;5046457;28;20601;-46
2022/07/11 04:36:37;;;;;;;14.45;8.05;;;13.70;99.90;;;;;;5048346;28;20021;-46
2022/07/11 04:39:02;;;;;;;15.10;7.63;;;13.70;99.90;;;;;;5048470;28;20486;-47
2022/07/11 04:41:28;;;;;;;18.10;8.75;;;13.70;99.90;;;;;;5048587;28;20060;-46
2022/07/11 04:43:53;;;;;;;11.50;7.13;;;13.80;99.90;;;;;;5046809;28;20094;-45
2022/07/11 04:46:19;;;;;;;13.68;7.38;;;13.80;99.90;;;;;;5039709;28;20037;-46
2022/07/11 04:48:44;;;;;;;13.70;7.75;;;13.90;99.90;;;;;;5049370;28;20073;-46
2022/07/11 04:51:10;;;;;;;11.05;7.40;;;14.00;99.90;;;;;;5049373;28;20079;-47
2022/07/11 04:53:35;;;;;;;14.50;7.72;;;14.20;99.90;;;;;;5045897;28;20035;-47
2022/07/11 04:56:02;;;;;;;13.40;7.90;;;14.40;99.90;;;;;;5025120;28;20112;-47
2022/07/11 04:58:32;;;;;;;11.45;7.65;;;14.30;99.90;;;;;;5022595;28;20441;-46
2022/07/11 05:00:57;;;;;;;11.13;6.90;;;14.40;99.90;;;;;;5012997;28;20026;-46
2022/07/11 05:03:23;;;;;;;15.00;6.57;;;14.40;99.90;;;;;;5006493;28;20033;-45
2022/07/11 05:05:48;;;;;;;12.25;6.85;;;14.30;99.90;;;;;;5006862;28;20080;-45
2022/07/11 05:08:14;;;;;;;10.35;5.95;;;14.30;99.90;;;;;;5007814;28;20044;-45
2022/07/11 05:10:39;;;;;;;12.43;7.13;;;14.30;99.90;;;;;;5012467;28;20684;-46
2022/07/11 05:13:05;;;;;;;11.30;6.80;;;14.40;99.90;;;;;;5016789;28;20034;-45
2022/07/11 05:15:31;;;;;;;10.68;6.28;;;14.60;99.90;;;;;;5029036;28;20059;-46
2022/07/11 05:17:56;;;;;;;8.93;6.00;;;14.60;99.90;;;;;;5023840;28;20021;-49
2022/07/11 05:20:22;;;;;;;9.50;6.13;;;14.60;99.90;;;;;;5019738;28;20132;-47
2022/07/11 05:22:47;;;;;;;8.27;4.80;;;14.60;99.90;;;;;;5027611;28;20041;-45
2022/07/11 05:25:13;;;;;;;9.50;5.63;;;14.60;99.90;;;;;;5036850;28;20021;-46
2022/07/11 05:27:38;;;;;;;10.25;5.85;;;14.70;99.90;;;;;;5049557;28;20046;-45
2022/07/11 05:30:04;;;;;;;10.93;5.55;;;14.80;99.90;;;;;;5051357;28;20025;-45
2022/07/11 05:32:30;;;;;;;10.95;5.20;;;14.70;99.90;;;;;;5050236;28;20032;-44
2022/07/11 05:35:00;;;;;;;11.48;5.85;;;14.70;99.90;;;;;;5041041;28;20497;-45
2022/07/11 05:37:26;;;;;;;15.30;5.90;;;14.70;99.90;;;;;;5047374;28;20238;-51
2022/07/11 05:39:51;;;;;;;9.00;5.80;;;14.70;99.90;;;;;;5040529;28;20025;-46
2022/07/11 05:42:17;;;;;;;9.13;5.82;;;14.60;99.90;;;;;;5040862;28;20025;-46
2022/07/11 05:44:42;;;;;;;9.30;5.63;;;14.70;99.90;;;;;;5039604;28;20407;-46
2022/07/11 05:47:08;;;;;;;12.00;6.15;;;14.80;99.90;;;;;;5032813;28;20064;-46
2022/07/11 05:49:33;;;;;;;8.93;5.82;;;14.80;99.90;;;;;;5030689;28;20044;-46
2022/07/11 05:51:59;;;;;;;12.40;6.28;;;14.90;99.90;;;;;;5035001;28;20029;-46
2022/07/11 05:54:25;;;;;;;9.88;5.60;;;15.00;99.90;;;;;;5041615;28;20021;-46
2022/07/11 05:56:50;;;;;;;12.65;5.70;;;15.10;99.90;;;;;;5033411;28;20030;-45
2022/07/11 05:59:16;;;;;;;6.43;5.38;;;15.10;99.90;;;;;;5030652;28;20029;-46
2022/07/11 06:01:42;;;;;;;7.88;4.90;;;15.20;99.90;;;;;;5030276;28;20044;-46
2022/07/11 06:04:07;;;;;;;7.95;4.13;;;15.20;99.90;;;;;;5030189;28;20111;-46
2022/07/11 06:06:33;;;;;;;5.75;3.97;;;15.30;99.90;;;;;;5038283;28;20017;-48
2022/07/11 06:08:58;;;;;;;5.75;2.90;;;15.30;99.90;;;;;;5042829;28;20025;-45
2022/07/11 06:11:25;;;;;;;5.18;2.60;;;15.30;99.90;;;;;;5019306;28;20030;-46
2022/07/11 06:13:51;;;;;;;4.18;2.22;;;15.30;99.90;;;;;;5025235;28;20029;-47
2022/07/11 06:16:17;;;;;;;3.30;2.55;;;15.30;99.90;;;;;;5032973;28;20029;-45
2022/07/11 06:18:43;;;;;;;9.52;2.55;;;15.40;99.90;;;;;;5020755;28;20054;-46
2022/07/11 06:21:08;;;;;;;3.53;2.35;;;15.40;99.90;;;;;;5013601;28;20107;-47
2022/07/11 06:23:34;;;;;;;4.00;2.40;;;15.60;99.90;;;;;;5023877;28;20029;-46
2022/07/11 06:26:01;;;;;;;7.22;2.00;;;15.80;99.90;;;;;;5041607;28;20028;-46
2022/07/11 06:28:26;;;;;;;4.03;1.95;;;15.90;99.90;;;;;;5039119;28;20108;-47
2022/07/11 06:30:52;;;;;;;4.40;1.70;;;16.10;99.90;;;;;;5027546;28;20113;-47
2022/07/11 06:33:19;;;;;;;6.15;2.00;;;16.30;99.90;;;;;;5030432;28;20097;-46
2022/07/11 06:35:45;;;;;;;5.25;2.00;;;16.40;99.90;;;;;;5031552;28;20017;-46
2022/07/11 06:38:11;;;;;;;9.63;2.00;;;16.40;99.90;;;;;;5041485;28;20029;-46
2022/07/11 06:40:37;;;;;;;5.05;2.25;;;16.50;99.90;;;;;;5050063;28;20136;-46
2022/07/11 06:43:02;;;;;;;7.90;2.40;;;16.40;99.90;;;;;;5038343;28;20112;-46
2022/07/11 06:45:29;;;;;;;4.63;2.15;;;16.40;99.90;;;;;;5034124;28;20037;-46
2022/07/11 06:47:54;;;;;;;5.47;2.60;;;16.20;99.90;;;;;;5037210;28;20060;-46
2022/07/11 06:50:20;;;;;;;3.42;1.98;;;16.10;99.90;;;;;;5029966;28;20467;-46
2022/07/11 06:52:47;;;;;;;4.50;2.20;;;16.00;99.90;;;;;;5029764;28;20237;-47
2022/07/11 06:55:12;;;;;;;6.35;2.00;;;16.00;99.90;;;;;;5029252;28;20033;-46
2022/07/11 06:57:38;;;;;;;4.50;2.40;;;16.00;99.90;;;;;;5029126;28;20029;-46
2022/07/11 07:00:06;;;;;;;4.35;1.60;;;16.10;99.90;;;;;;5029645;28;20146;-47
2022/07/11 07:02:32;;;;;;;3.95;1.80;;;16.30;99.90;;;;;;5028325;28;20037;-45
2022/07/11 07:04:58;;;;;;;4.85;1.70;;;16.60;99.90;;;;;;5028998;28;20052;-45
2022/07/11 07:07:26;;;;;;;2.40;2.00;;;16.80;99.90;;;;;;5029039;28;20509;-45
2022/07/11 07:09:55;;;;;;;3.53;1.85;;;16.90;99.90;;;;;;5029105;28;20164;-47
2022/07/11 07:12:21;;;;;;;3.42;1.90;;;17.00;99.90;;;;;;5029269;28;20034;-46
2022/07/11 07:14:47;;;;;;;2.50;1.50;;;17.10;99.90;;;;;;5036380;28;20445;-45
2022/07/11 07:17:13;;;;;;;2.40;1.52;;;17.10;99.90;;;;;;5034803;28;20033;-45
2022/07/11 07:19:39;;;;;;;3.97;1.30;;;17.40;99.90;;;;;;5029509;28;20083;-45
2022/07/11 07:22:05;;;;;;;2.90;1.80;;;17.40;99.90;;;;;;5029180;28;20488;-46
2022/07/11 07:24:31;;;;;;;2.33;1.27;;;17.40;99.90;;;;;;5036317;28;20532;-45
2022/07/11 07:26:57;;;;;;;7.03;1.30;;;17.40;99.90;;;;;;5033522;28;20490;-45
2022/07/11 07:29:22;;;;;;;4.13;1.60;;;17.40;99.90;;;;;;5025149;28;20189;-45
2022/07/11 07:31:48;;;;;;;3.88;1.67;;;17.50;99.90;;;;;;5036396;28;20040;-46
2022/07/11 07:34:14;;;;;;;4.72;1.50;;;17.50;99.90;;;;;;5028436;28;20471;-46
2022/07/11 07:36:40;;;;;;;4.43;1.50;;;17.60;99.90;;;;;;5029060;28;20112;-46
2022/07/11 07:39:05;;;;;;;2.45;1.25;;;17.70;99.90;;;;;;5029066;28;20234;-46
2022/07/11 07:41:30;;;;;;;2.70;1.17;;;18.10;99.90;;;;;;5027278;28;20033;-46
2022/07/11 07:43:56;;;;;;;4.63;1.63;;;18.20;99.90;;;;;;5037706;28;20021;-46
2022/07/11 07:46:22;;;;;;;2.58;1.15;;;18.20;99.90;;;;;;5039406;28;20029;-49
2022/07/11 07:48:47;;;;;;;4.90;1.45;;;18.10;99.90;;;;;;5047458;28;20021;-47
2022/07/11 07:51:13;;;;;;;5.03;2.55;;;18.10;99.90;;;;;;5047757;28;20336;-47
2022/07/11 07:53:39;;;;;;;2.67;1.20;;;18.20;99.90;;;;;;5030187;28;20108;-47
2022/07/11 07:56:05;;;;;;;7.15;1.60;;;18.20;99.90;;;;;;5039859;28;20356;-47
2022/07/11 07:58:31;;;;;;;4.32;1.35;;;18.40;99.90;;;;;;5036456;28;20590;-47
2022/07/11 08:03:40;;;;;;;2.78;1.50;;;18.90;99.90;;;;;;5028447;28;20044;-47
2022/07/11 08:06:06;;;;;;;2.33;1.30;;;19.10;99.90;;;;;;5028145;28;20124;-46
2022/07/11 08:08:32;;;;;;;1.67;1.27;;;19.10;99.90;;;;;;5028411;28;20029;-47
2022/07/11 08:11:00;;;;;;;1.85;1.20;;;19.30;99.90;;;;;;5028733;28;20033;-46
2022/07/11 08:13:26;;;;;;;1.25;1.00;;;19.40;99.90;;;;;;5028119;28;20029;-46
2022/07/11 08:15:52;;;;;;;5.90;1.63;;;19.40;99.90;;;;;;5039342;28;20608;-46
2022/07/11 08:18:17;;;;;;;3.55;1.40;;;19.60;99.90;;;;;;5039212;28;20117;-47
2022/07/11 08:20:43;;;;;;;2.70;1.20;;;20.00;99.80;;;;;;5036514;28;20116;-48
2022/07/11 08:23:08;;;;;;;3.35;1.05;;;20.20;99.00;;;;;;5035742;28;20525;-47
2022/07/11 08:25:34;;;;;;;4.30;1.20;;;20.90;98.60;;;;;;5026798;28;20049;-49
2022/07/11 08:27:59;;;;;;;2.60;1.20;;;21.60;96.10;;;;;;5028689;28;20100;-47
2022/07/11 08:30:25;;;;;;;1.38;1.13;;;21.90;96.20;;;;;;5026678;28;20029;-47
2022/07/11 08:32:51;;;;;;;4.22;1.02;;;22.40;94.20;;;;;;5028071;28;20034;-47
2022/07/11 08:35:16;;;;;;;1.63;1.05;;;23.20;93.70;;;;;;5027816;28;20043;-47
2022/07/11 08:37:42;;;;;;;1.50;1.27;;;23.70;92.90;;;;;;5028127;28;20033;-47
2022/07/11 08:40:09;;;;;;;3.40;1.38;;;24.40;90.70;;;;;;5027472;28;20029;-50
2022/07/11 08:42:44;;;;;;;3.72;1.73;;;25.50;85.40;;;;;;5015190;28;20329;-45
2022/07/11 08:45:14;;;;;;;1.20;0.90;;;26.70;82.20;;;;;;5035617;28;20024;-45
2022/07/11 08:47:40;;;;;;;1.90;1.00;;;27.90;77.10;;;;;;5046156;28;20025;-46
2022/07/11 08:50:06;;;;;;;2.67;0.90;;;28.70;72.20;;;;;;5048180;28;20549;-46
2022/07/11 08:52:33;;;;;;;4.82;1.00;;;29.90;65.80;;;;;;5044947;28;20087;-46
2022/07/11 08:54:59;;;;;;;1.98;0.90;;;30.90;65.70;;;;;;5027438;28;20033;-49
2022/07/11 08:57:25;;;;;;;1.48;0.90;;;31.00;62.10;;;;;;5028880;28;20079;-45
2022/07/11 08:59:55;;;;;;;3.97;1.05;;;30.80;61.40;;;;;;5032213;28;20033;-48
2022/07/11 09:02:22;;;;;;;3.28;0.80;;;29.80;60.60;;;;;;5041301;28;20025;-47
2022/07/11 09:04:48;;;;;;;2.80;0.90;;;28.40;62.40;;;;;;5037033;28;20028;-49
2022/07/11 09:07:14;;;;;;;1.50;0.80;;;28.40;63.40;;;;;;5037947;28;20025;-48
2022/07/11 09:09:39;;;;;;;2.40;1.08;;;28.50;64.90;;;;;;5030874;28;20033;-46
2022/07/11 09:12:12;;;;;;;3.53;0.93;;;28.90;62.90;;;;;;5029054;28;20053;-48
2022/07/11 09:14:37;;;;;;;0.95;0.75;;;30.50;60.20;;;;;;5032738;28;20026;-45
2022/07/11 09:17:05;;;;;;;1.00;0.68;;;31.20;57.80;;;;;;5029461;28;20368;-46
2022/07/11 09:19:32;;;;;;;1.27;0.60;;;31.10;58.00;;;;;;5028796;28;20017;-46
2022/07/11 09:25:21;;;;;;;1.42;1.00;;;31.20;55.70;;;;;;5033775;28;20111;-47
2022/07/11 09:28:09;;;;;;;1.90;0.80;;;30.50;55.70;;;;;;5034568;28;20083;-48
2022/07/11 09:30:41;;;;;;;2.20;1.08;;;29.70;57.50;;;;;;5031796;28;20112;-48
2022/07/11 09:33:09;;;;;;;1.33;0.60;;;28.20;60.00;;;;;;5027341;28;20435;-46
2022/07/11 09:35:36;;;;;;;3.47;0.95;;;28.70;58.70;;;;;;5019498;28;20026;-47
2022/07/11 09:38:04;;;;;;;1.75;1.08;;;29.10;58.60;;;;;;5012571;28;20030;-47
2022/07/11 09:40:30;;;;;;;1.63;0.80;;;30.10;57.40;;;;;;5026279;28;20041;-49
2022/07/11 09:42:57;;;;;;;0.90;0.60;;;31.10;55.80;;;;;;5032127;28;20408;-47
2022/07/11 09:45:24;;;;;;;1.83;0.70;;;30.20;56.10;;;;;;5039803;28;20052;-47
2022/07/11 09:47:58;;;;;;;5.70;0.93;;;29.70;56.00;;;;;;5038214;28;20053;-48
2022/07/11 09:50:26;;;;;;;2.20;0.90;;;28.50;58.30;;;;;;5032790;28;20022;-46
2022/07/11 09:53:05;;;;;;;0.60;0.50;;;28.60;59.20;;;;;;5032213;28;20513;-47
2022/07/11 09:55:36;;;;;;;3.33;0.60;;;28.80;56.40;;;;;;5031424;28;20146;-46
2022/07/11 09:58:10;;;;;;;2.20;0.90;;;30.00;55.60;;;;;;5031326;28;20033;-48
2022/07/11 10:00:37;;;;;;;1.27;0.77;;;30.70;55.00;;;;;;5033062;28;20625;-50
2022/07/11 10:03:04;;;;;;;0.90;0.73;;;31.70;54.10;;;;;;5043677;28;20037;-47
2022/07/11 10:05:30;;;;;;;1.17;0.50;;;31.70;54.20;;;;;;5052035;28;20100;-49
2022/07/11 10:08:03;;;;;;;0.55;0.55;;;32.30;52.80;;;;;;5052428;28;20104;-47
2022/07/11 10:10:30;;;;;;;2.25;0.85;;;33.60;51.80;;;;;;5049957;28;20063;-47
2022/07/11 10:12:57;;;;;;;1.10;0.55;;;33.70;50.70;;;;;;5041780;28;20124;-49
2022/07/11 10:15:23;;;;;;;1.48;0.80;;;32.30;50.60;;;;;;5039573;28;20040;-47
2022/07/11 10:17:58;;;;;;;1.25;0.80;;;30.70;52.70;;;;;;5051676;28;20094;-48
2022/07/11 10:20:47;;;;;;;0.82;0.50;;;31.00;54.20;;;;;;5052224;28;20029;-47
2022/07/11 10:23:37;;;;;;;0.82;0.60;;;31.50;52.50;;;;;;5027916;28;20037;-47
2022/07/11 10:26:21;;;;;;;0.98;0.60;;;31.90;52.40;;;;;;5038354;28;20071;-47
2022/07/11 10:28:54;;;;;;;1.27;0.50;;;31.00;53.50;;;;;;5032057;28;20034;-47
2022/07/11 10:31:22;;;;;;;1.73;0.70;;;31.00;53.30;;;;;;5039823;28;20013;-47
2022/07/11 10:34:10;;;;;;;3.10;0.80;;;31.70;54.00;;;;;;5038500;28;20597;-48
2022/07/11 10:36:43;;;;;;;0.70;0.52;;;32.20;52.00;;;;;;5031787;28;20037;-47
2022/07/11 10:39:24;;;;;;;0.93;0.50;;;33.10;50.80;;;;;;5030511;28;20018;-47
2022/07/11 10:41:50;;;;;;;0.90;0.60;;;31.80;50.60;;;;;;5031382;28;20506;-47
2022/07/11 10:44:16;;;;;;;0.63;0.40;;;31.50;52.20;;;;;;5037202;28;20475;-48
2022/07/11 10:46:42;;;;;;;0.70;0.57;;;31.50;54.00;;;;;;5042839;28;20025;-48
2022/07/11 10:49:39;;;;;;;0.50;0.50;;;31.00;52.70;;;;;;5050744;28;20637;-49
2022/07/11 10:52:06;;;;;;;2.33;0.60;;;30.70;52.80;;;;;;5051200;28;20029;-47
2022/07/11 10:54:44;;;;;;;0.50;0.50;;;31.60;53.40;;;;;;5039195;28;20380;-47
2022/07/11 10:57:23;;;;;;;1.13;0.68;;;30.90;51.50;;;;;;5045356;28;20082;-46
2022/07/11 11:00:04;;;;;;;0.40;0.40;;;29.70;53.30;;;;;;5031414;28;20121;-46
2022/07/11 11:02:31;;;;;;;0.50;0.50;;;30.60;54.80;;;;;;5029836;28;20022;-47
2022/07/11 11:05:00;;;;;;;0.75;0.50;;;31.20;52.40;;;;;;5030430;28;20490;-47
2022/07/11 11:07:31;;;;;;;0.60;0.57;;;31.50;51.60;;;;;;5030911;28;20018;-48
2022/07/11 11:09:57;;;;;;;1.05;0.60;;;31.60;51.60;;;;;;5029598;28;20029;-47
2022/07/11 11:13:00;;;;;;;1.35;0.60;;;32.30;49.20;;;;;;5030852;28;20022;-47
2022/07/11 11:15:54;;;;;;;1.25;0.70;;;33.00;49.00;;;;;;5038373;28;20029;-49
2022/07/11 11:18:25;;;;;;;2.88;0.47;;;32.90;50.60;;;;;;5032656;28;20026;-48
2022/07/11 11:20:59;;;;;;;1.02;0.65;;;32.50;50.40;;;;;;5034396;28;20644;-47
2022/07/11 11:23:35;;;;;;;0.88;0.60;;;32.50;49.20;;;;;;5031295;28;20025;-47
2022/07/11 11:26:14;;;;;;;0.35;0.35;;;32.70;49.80;;;;;;5029863;28;20026;-47
2022/07/11 11:28:59;;;;;;;1.33;0.50;;;32.80;48.10;;;;;;5011087;28;20030;-47
2022/07/11 11:31:32;;;;;;;1.45;0.63;;;33.00;50.30;;;;;;5011221;28;20028;-50
2022/07/11 11:34:00;;;;;;;1.10;0.50;;;33.50;46.30;;;;;;5038063;28;20471;-48
2022/07/11 11:36:27;;;;;;;1.00;0.73;;;33.60;47.60;;;;;;5039972;28;20507;-49
2022/07/11 11:38:53;;;;;;;1.77;0.70;;;33.90;45.90;;;;;;5044031;28;20043;-48
2022/07/11 11:41:25;;;;;;;0.93;0.50;;;33.70;46.80;;;;;;5030870;28;20418;-47
2022/07/11 11:43:52;;;;;;;0.68;0.47;;;33.50;46.50;;;;;;5030920;28;20033;-48
2022/07/11 11:46:18;;;;;;;0.90;0.40;;;32.40;48.20;;;;;;5037953;28;20025;-48
2022/07/11 11:48:45;;;;;;;1.15;0.60;;;31.20;52.10;;;;;;5030082;28;20031;-47
2022/07/11 11:51:18;;;;;;;1.42;0.75;;;30.50;51.60;;;;;;5031652;28;20060;-46
2022/07/11 11:53:46;;;;;;;3.80;0.60;;;31.00;51.70;;;;;;5037688;28;20454;-50
2022/07/11 11:56:13;;;;;;;0.73;0.63;;;31.10;51.90;;;;;;5044524;28;20037;-47
2022/07/11 11:58:40;;;;;;;0.50;0.50;;;29.90;52.30;;;;;;5028440;28;20036;-47
2022/07/11 12:01:05;;;;;;;2.63;0.77;;;27.80;54.70;;;;;;5023425;28;20019;-46
2022/07/11 12:03:46;;;;;;;1.25;0.80;;;27.20;57.70;;;;;;5012448;28;20030;-46
2022/07/11 12:06:15;;;;;;;1.80;0.80;;;26.30;58.90;;;;;;5028029;28;20026;-49
2022/07/11 12:08:40;;;;;;;1.63;0.90;;;25.40;59.80;;;;;;5028664;28;20112;-48
2022/07/11 12:11:06;;;;;;;1.50;0.70;;;25.90;59.90;;;;;;5028325;28;20116;-46
2022/07/11 12:13:31;;;;;;;1.13;0.80;;;26.60;59.50;;;;;;5028121;28;20040;-47
2022/07/11 12:18:41;;;;;;;1.33;0.88;;;26.00;60.10;;;;;;5037922;28;20103;-47
2022/07/11 12:21:11;;;;;;;1.13;0.60;;;25.90;59.90;;;;;;5028391;28;20494;-46
2022/07/11 12:23:36;;;;;;;1.00;0.70;;;26.20;61.10;;;;;;5028005;28;20112;-48
2022/07/11 12:26:02;;;;;;;2.28;0.70;;;26.40;57.90;;;;;;5035425;28;20117;-47
2022/07/11 12:28:28;;;;;;;1.20;0.50;;;26.70;58.70;;;;;;5033201;28;20026;-45
2022/07/11 12:30:56;;;;;;;0.50;0.50;;;26.70;58.00;;;;;;5028278;28;20083;-46
2022/07/11 12:33:25;;;;;;;1.33;0.70;;;26.70;57.10;;;;;;5029888;28;20116;-47
2022/07/11 12:36:01;;;;;;;1.20;0.65;;;26.50;58.00;;;;;;5031789;28;20032;-46
2022/07/11 12:38:48;;;;;;;1.05;0.55;;;26.80;57.50;;;;;;5032267;28;20029;-47
2022/07/11 12:41:14;;;;;;;0.80;0.60;;;27.30;57.90;;;;;;5032887;28;20087;-47
2022/07/11 12:46:27;;;;;;;0.82;0.60;;;27.70;58.20;;;;;;5044153;28;20049;-48
2022/07/11 12:48:53;;;;;;;0.68;0.40;;;27.90;59.00;;;;;;5051082;28;20474;-47
2022/07/11 12:51:31;;;;;;;0.80;0.60;;;27.70;56.70;;;;;;5039277;28;20030;-46
2022/07/11 12:54:01;;;;;;;2.85;0.60;;;26.90;57.60;;;;;;5012423;28;20399;-45
2022/07/11 12:56:27;;;;;;;0.68;0.60;;;26.40;59.20;;;;;;5015182;28;20124;-47
2022/07/11 12:58:52;;;;;;;2.78;0.68;;;26.10;59.80;;;;;;5032274;28;20498;-46